createdAt,value
2023-05-20T00:00:24.028Z,31.38
2023-05-20T00:02:53.465Z,32.67
2023-05-20T00:05:22.890Z,31.65
2023-05-20T00:07:52.208Z,30.95
2023-05-20T00:10:21.574Z,30.30
2023-05-20T00:12:50.953Z,33.53
2023-05-20T00:15:20.471Z,32.80
2023-05-20T00:17:49.852Z,34.45
2023-05-20T00:20:19.580Z,31.85
2023-05-20T00:22:48.940Z,32.42
2023-05-20T00:25:18.444Z,34.72
2023-05-20T00:27:48.366Z,38.50
2023-05-20T00:30:17.925Z,36.40
2023-05-20T00:32:47.536Z,38.42
2023-05-20T00:35:16.954Z,32.90
2023-05-20T00:37:46.408Z,34.13
2023-05-20T00:40:17.321Z,33.67
2023-05-20T00:42:46.795Z,32.45
2023-05-20T00:45:16.126Z,34.75
2023-05-20T00:47:46.719Z,35.08
2023-05-20T00:50:16.545Z,33.63
2023-05-20T00:52:49.213Z,37.05
2023-05-20T00:55:18.790Z,33.95
2023-05-20T00:57:48.898Z,31.67
2023-05-20T01:00:19.289Z,33.05
2023-05-20T01:02:48.971Z,32.83
2023-05-20T01:05:18.459Z,33.85
2023-05-20T01:07:48.087Z,33.10
2023-05-20T01:10:17.631Z,30.80
2023-05-20T01:12:57.494Z,28.92
2023-05-20T01:15:29.966Z,30.27
2023-05-20T01:18:19.480Z,30.90
2023-05-20T01:20:59.987Z,32.95
2023-05-20T01:23:48.824Z,32.00
2023-05-20T01:26:19.852Z,32.65
2023-05-20T01:28:54.658Z,33.70
2023-05-20T01:31:34.175Z,33.35
2023-05-20T01:34:10.160Z,33.30
2023-05-20T01:36:41.633Z,34.17
2023-05-20T01:39:11.812Z,33.17
2023-05-20T01:41:42.954Z,30.67
2023-05-20T01:44:15.695Z,32.60
2023-05-20T01:46:53.617Z,31.80
2023-05-20T01:49:23.212Z,31.88
2023-05-20T01:51:52.724Z,31.85
2023-05-20T01:54:22.467Z,33.30
2023-05-20T01:56:52.425Z,32.80
2023-05-20T01:59:21.824Z,32.75
2023-05-20T02:01:51.748Z,32.30
2023-05-20T02:04:23.584Z,31.23
2023-05-20T02:06:53.046Z,32.75
2023-05-20T02:09:22.319Z,29.30
2023-05-20T02:11:51.681Z,29.83
2023-05-20T02:14:21.047Z,28.95
2023-05-20T02:16:50.496Z,28.02
2023-05-20T02:19:24.607Z,28.40
2023-05-20T02:21:54.037Z,26.50
2023-05-20T02:24:23.435Z,28.00
2023-05-20T02:26:54.845Z,26.20
2023-05-20T02:29:24.238Z,24.85
2023-05-20T02:31:54.825Z,27.10
2023-05-20T02:34:32.462Z,27.08
2023-05-20T02:37:02.469Z,26.45
2023-05-20T02:39:35.869Z,24.67
2023-05-20T02:42:08.008Z,23.75
2023-05-20T02:44:37.344Z,24.17
2023-05-20T02:47:07.320Z,22.95
2023-05-20T02:49:36.930Z,25.27
2023-05-20T02:52:06.773Z,24.77
2023-05-20T02:54:36.741Z,24.55
2023-05-20T02:57:06.342Z,21.48
2023-05-20T02:59:35.730Z,21.55
2023-05-20T03:04:48.749Z,21.08
2023-05-20T03:07:26.548Z,23.10
2023-05-20T03:09:56.177Z,23.20
2023-05-20T03:12:27.338Z,21.60
2023-05-20T03:14:56.709Z,21.58
2023-05-20T03:17:26.134Z,21.65
2023-05-20T03:19:55.832Z,19.92
2023-05-20T03:22:25.101Z,19.58
2023-05-20T03:24:54.459Z,19.65
2023-05-20T03:27:23.905Z,20.33
2023-05-20T03:29:57.970Z,20.40
2023-05-20T03:32:34.698Z,20.67
2023-05-20T03:35:06.135Z,21.38
2023-05-20T03:37:37.088Z,19.25
2023-05-20T03:40:07.330Z,20.48
2023-05-20T03:42:37.334Z,19.88
2023-05-20T03:45:10.468Z,17.13
2023-05-20T03:47:39.956Z,16.33
2023-05-20T03:50:12.473Z,18.08
2023-05-20T03:52:42.426Z,17.83
2023-05-20T03:55:16.416Z,19.52
2023-05-20T03:57:52.111Z,19.08
2023-05-20T04:00:21.579Z,18.38
2023-05-20T04:02:51.225Z,18.40
2023-05-20T04:05:20.953Z,18.30
2023-05-20T04:07:50.822Z,19.10
2023-05-20T04:10:27.091Z,17.48
2023-05-20T04:12:56.621Z,17.90
2023-05-20T04:15:26.757Z,18.77
2023-05-20T04:17:57.070Z,17.90
2023-05-20T04:20:26.735Z,33.08
2023-05-20T04:23:00.106Z,21.52
2023-05-20T04:25:31.562Z,19.00
2023-05-20T04:28:02.455Z,18.52
2023-05-20T04:30:34.528Z,18.00
2023-05-20T04:33:07.325Z,18.00
2023-05-20T04:35:38.690Z,16.77
2023-05-20T04:38:08.553Z,17.42
2023-05-20T04:40:40.108Z,18.02
2023-05-20T04:43:09.532Z,16.85
2023-05-20T04:45:39.044Z,17.10
2023-05-20T04:48:15.217Z,16.52
2023-05-20T04:50:45.542Z,16.73
2023-05-20T04:53:15.408Z,14.57
2023-05-20T04:55:45.884Z,15.57
2023-05-20T04:58:21.455Z,14.65
2023-05-20T05:00:51.375Z,14.77
2023-05-20T05:03:20.940Z,15.80
2023-05-20T05:05:50.453Z,14.93
2023-05-20T05:08:19.793Z,15.32
2023-05-20T05:10:49.305Z,15.20
2023-05-20T05:13:21.462Z,14.35
2023-05-20T05:16:00.631Z,14.20
2023-05-20T05:18:30.353Z,14.80
2023-05-20T05:21:13.560Z,13.65
2023-05-20T05:23:43.680Z,13.60
2023-05-20T05:26:13.124Z,16.23
2023-05-20T05:28:47.218Z,14.93
2023-05-20T05:31:16.619Z,14.80
2023-05-20T05:33:45.966Z,17.13
2023-05-20T05:36:15.426Z,14.73
2023-05-20T05:38:46.040Z,16.00
2023-05-20T05:41:15.450Z,15.23
2023-05-20T05:43:44.765Z,13.88
2023-05-20T05:46:14.192Z,14.25
2023-05-20T05:48:44.155Z,15.82
2023-05-20T05:51:13.464Z,14.90
2023-05-20T05:53:43.203Z,15.13
2023-05-20T05:56:13.033Z,15.00
2023-05-20T05:58:42.437Z,12.52
2023-05-20T06:01:11.799Z,14.38
2023-05-20T06:03:41.301Z,14.02
2023-05-20T06:06:10.704Z,14.80
2023-05-20T06:08:40.021Z,14.18
2023-05-20T06:11:11.390Z,12.35
2023-05-20T06:13:40.870Z,12.93
2023-05-20T06:16:10.295Z,13.50
2023-05-20T06:18:39.693Z,12.90
2023-05-20T06:21:09.054Z,14.00
2023-05-20T06:23:38.325Z,12.90
2023-05-20T06:26:07.714Z,13.27
2023-05-20T06:28:37.153Z,11.60
2023-05-20T06:31:07.340Z,11.32
2023-05-20T06:33:37.749Z,12.90
2023-05-20T06:36:07.225Z,14.07
2023-05-20T06:38:36.698Z,14.05
2023-05-20T06:41:06.398Z,12.43
2023-05-20T06:43:35.745Z,13.82
2023-05-20T06:46:05.423Z,13.35
2023-05-20T06:48:34.902Z,13.57
2023-05-20T06:51:05.568Z,12.23
2023-05-20T06:53:36.201Z,12.75
2023-05-20T06:56:05.657Z,13.13
2023-05-20T06:58:35.539Z,13.05
2023-05-20T07:01:05.012Z,12.98
2023-05-20T07:03:34.414Z,12.77
2023-05-20T07:06:03.992Z,13.82
2023-05-20T07:08:33.359Z,13.60
2023-05-20T07:11:14.220Z,13.25
2023-05-20T07:13:43.599Z,13.52
2023-05-20T07:16:12.937Z,14.52
2023-05-20T07:18:42.410Z,12.98
2023-05-20T07:21:11.823Z,13.20
2023-05-20T07:23:41.405Z,13.63
2023-05-20T07:26:10.743Z,13.93
2023-05-20T07:28:41.208Z,12.73
2023-05-20T07:31:10.555Z,12.73
2023-05-20T07:33:40.047Z,12.73
2023-05-20T07:36:11.068Z,12.35
2023-05-20T07:38:56.483Z,12.82
2023-05-20T07:41:30.613Z,12.82
2023-05-20T07:43:59.934Z,12.13
2023-05-20T07:46:29.321Z,12.13
2023-05-20T07:48:58.980Z,12.32
2023-05-20T07:51:28.533Z,12.32
2023-05-20T07:53:58.282Z,11.38
2023-05-20T07:56:27.710Z,12.13
2023-05-20T07:59:00.987Z,12.88
2023-05-20T08:01:30.713Z,13.02
2023-05-20T08:04:00.270Z,13.48
2023-05-20T08:06:30.040Z,12.52
2023-05-20T08:08:59.529Z,13.32
2023-05-20T08:11:29.135Z,12.02
2023-05-20T08:13:58.540Z,13.35
2023-05-20T08:16:27.882Z,12.50
2023-05-20T08:18:57.312Z,12.13
2023-05-20T08:21:26.695Z,13.15
2023-05-20T08:23:56.351Z,12.23
2023-05-20T08:26:25.646Z,12.77
2023-05-20T08:28:55.008Z,12.07
2023-05-20T08:31:24.404Z,12.23
2023-05-20T08:33:53.827Z,11.27
2023-05-20T08:36:23.274Z,12.18
2023-05-20T08:38:53.931Z,12.55
2023-05-20T08:41:23.743Z,12.63
2023-05-20T08:43:54.801Z,13.02
2023-05-20T08:46:25.115Z,12.60
2023-05-20T08:48:54.518Z,12.52
2023-05-20T08:51:28.204Z,11.98
2023-05-20T08:53:58.292Z,11.75
2023-05-20T08:56:31.119Z,11.95
2023-05-20T08:59:00.904Z,11.75
2023-05-20T09:01:30.406Z,11.40
2023-05-20T09:04:06.301Z,12.38
2023-05-20T09:06:50.770Z,11.27
2023-05-20T09:09:31.310Z,11.80
2023-05-20T09:12:05.288Z,12.30
2023-05-20T09:14:35.027Z,12.18
2023-05-20T09:17:05.940Z,12.05
2023-05-20T09:19:35.983Z,10.75
2023-05-20T09:22:07.111Z,11.23
2023-05-20T09:24:36.547Z,11.52
2023-05-20T09:27:06.450Z,12.23
2023-05-20T09:29:36.208Z,12.07
2023-05-20T09:32:14.067Z,13.18
2023-05-20T09:34:56.643Z,11.45
2023-05-20T09:37:31.968Z,11.88
2023-05-20T09:40:10.648Z,12.90
2023-05-20T09:42:58.600Z,11.38
2023-05-20T09:45:28.238Z,11.75
2023-05-20T09:47:59.140Z,12.30
2023-05-20T09:50:29.921Z,12.52
2023-05-20T09:53:04.886Z,11.90
2023-05-20T09:55:35.456Z,11.45
2023-05-20T09:58:05.700Z,10.60
2023-05-20T10:00:35.600Z,10.98
2023-05-20T10:03:05.760Z,10.80
2023-05-20T10:05:43.247Z,11.68
2023-05-20T10:08:49.995Z,11.60
2023-05-20T10:11:37.823Z,11.40
2023-05-20T10:14:33.481Z,12.15
2023-05-20T10:17:30.214Z,12.18
2023-05-20T10:20:05.890Z,11.80
2023-05-20T10:22:36.030Z,13.13
2023-05-20T10:25:11.202Z,12.05
2023-05-20T10:27:49.401Z,11.18
2023-05-20T10:30:23.863Z,11.48
2023-05-20T10:33:06.011Z,11.70
2023-05-20T10:35:35.474Z,11.75
2023-05-20T10:38:14.486Z,12.00
2023-05-20T10:40:44.446Z,10.93
2023-05-20T10:43:27.632Z,11.18
2023-05-20T10:46:04.828Z,11.20
2023-05-20T10:48:36.053Z,11.88
2023-05-20T10:51:06.061Z,12.52
2023-05-20T10:53:46.729Z,11.85
2023-05-20T10:56:25.229Z,11.70
2023-05-20T10:58:58.001Z,12.23
2023-05-20T11:01:28.979Z,12.65
2023-05-20T11:04:02.576Z,13.02
2023-05-20T11:06:42.020Z,13.80
2023-05-20T11:09:27.648Z,11.93
2023-05-20T11:11:57.221Z,12.60
2023-05-20T11:14:29.323Z,12.30
2023-05-20T11:19:40.661Z,12.75
2023-05-20T11:22:10.538Z,13.75
2023-05-20T11:24:40.171Z,12.40
2023-05-20T11:27:15.479Z,12.52
2023-05-20T11:29:45.070Z,13.65
2023-05-20T11:32:15.065Z,12.90
2023-05-20T11:37:33.081Z,14.55
2023-05-20T11:40:11.035Z,12.93
2023-05-20T11:42:40.334Z,13.05
2023-05-20T11:45:15.446Z,13.43
2023-05-20T11:48:05.437Z,14.77
2023-05-20T11:50:45.678Z,13.90
2023-05-20T11:53:21.033Z,14.43
2023-05-20T11:56:01.423Z,14.75
2023-05-20T11:58:34.104Z,13.75
2023-05-20T12:01:17.944Z,16.33
2023-05-20T12:03:52.138Z,15.15
2023-05-20T12:06:23.077Z,15.40
2023-05-20T12:09:06.356Z,15.15
2023-05-20T12:11:47.748Z,15.38
2023-05-20T12:14:17.203Z,13.85
2023-05-20T12:16:46.787Z,15.68
2023-05-20T12:19:17.110Z,15.05
2023-05-20T12:21:48.466Z,15.65
2023-05-20T12:24:17.844Z,15.32
2023-05-20T12:26:47.214Z,15.00
2023-05-20T12:29:16.883Z,14.05
2023-05-20T12:31:50.544Z,14.55
2023-05-20T12:34:20.027Z,14.55
2023-05-20T12:36:49.629Z,14.55
2023-05-20T12:39:20.672Z,12.77
2023-05-20T12:41:50.393Z,14.55
2023-05-20T12:44:21.446Z,15.35
2023-05-20T12:46:50.824Z,13.50
2023-05-20T12:49:22.766Z,13.38
2023-05-20T12:51:52.231Z,14.35
2023-05-20T12:54:22.773Z,13.43
2023-05-20T12:56:52.276Z,13.80
2023-05-20T12:59:22.130Z,14.82
2023-05-20T13:01:51.523Z,15.07
2023-05-20T13:04:21.178Z,14.80
2023-05-20T13:06:50.755Z,14.43
2023-05-20T13:09:22.076Z,14.07
2023-05-20T13:11:51.475Z,17.52
2023-05-20T13:14:20.912Z,16.75
2023-05-20T13:16:55.525Z,17.42
2023-05-20T13:19:26.262Z,18.58
2023-05-20T13:22:02.612Z,18.58
2023-05-20T13:24:54.611Z,16.85
2023-05-20T13:27:24.213Z,16.45
2023-05-20T13:29:53.551Z,17.80
2023-05-20T13:32:27.976Z,17.45
2023-05-20T13:34:58.174Z,18.48
2023-05-20T13:37:27.922Z,16.08
2023-05-20T13:39:57.222Z,19.58
2023-05-20T13:42:26.458Z,16.20
2023-05-20T13:44:55.954Z,16.58
2023-05-20T13:47:28.088Z,14.48
2023-05-20T13:50:03.487Z,15.35
2023-05-20T13:52:35.722Z,15.70
2023-05-20T13:57:50.759Z,14.00
2023-05-20T14:00:20.218Z,14.32
2023-05-20T14:02:49.688Z,14.32
2023-05-20T14:05:20.076Z,15.27
2023-05-20T14:07:49.521Z,15.13
2023-05-20T14:10:19.003Z,15.48
2023-05-20T14:12:49.255Z,14.48
2023-05-20T14:15:18.704Z,14.38
2023-05-20T14:17:58.390Z,13.95
2023-05-20T14:20:29.540Z,15.30
2023-05-20T14:25:45.344Z,15.27
2023-05-20T14:28:23.577Z,16.02
2023-05-20T14:30:55.711Z,15.85
2023-05-20T14:33:28.365Z,15.88
2023-05-20T14:35:57.905Z,18.25
2023-05-20T14:38:30.541Z,16.77
2023-05-20T14:41:00.016Z,17.02
2023-05-20T14:43:29.561Z,17.35
2023-05-20T14:46:01.562Z,17.15
2023-05-20T14:48:31.000Z,16.85
2023-05-20T14:51:00.277Z,16.17
2023-05-20T14:53:29.587Z,16.45
2023-05-20T14:55:59.047Z,15.30
2023-05-20T14:58:28.547Z,15.93
2023-05-20T15:01:02.745Z,14.60
2023-05-20T15:03:32.800Z,14.73
2023-05-20T15:06:02.233Z,15.27
2023-05-20T15:08:31.709Z,15.00
2023-05-20T15:11:01.327Z,14.57
2023-05-20T15:13:30.736Z,16.13
2023-05-20T15:16:03.107Z,14.73
2023-05-20T15:18:35.445Z,14.75
2023-05-20T15:21:06.930Z,15.13
2023-05-20T15:23:36.301Z,15.68
2023-05-20T15:26:06.506Z,15.98
2023-05-20T15:28:38.920Z,14.15
2023-05-20T15:31:08.999Z,14.48
2023-05-20T15:33:38.650Z,14.57
2023-05-20T15:36:08.402Z,14.07
2023-05-20T15:38:37.794Z,14.80
2023-05-20T15:41:07.771Z,15.65
2023-05-20T15:43:37.303Z,15.27
2023-05-20T15:46:06.997Z,14.75
2023-05-20T15:48:38.858Z,14.68
2023-05-20T15:51:08.391Z,15.05
2023-05-20T15:53:39.373Z,14.88
2023-05-20T15:56:12.552Z,15.18
2023-05-20T15:58:42.162Z,16.48
2023-05-20T16:01:11.700Z,14.77
2023-05-20T16:03:41.882Z,17.23
2023-05-20T16:06:16.050Z,15.93
2023-05-20T16:08:48.464Z,16.15
2023-05-20T16:11:17.794Z,16.35
2023-05-20T16:13:47.114Z,17.08
2023-05-20T16:16:17.842Z,16.83
2023-05-20T16:18:48.643Z,17.15
2023-05-20T16:21:18.183Z,17.08
2023-05-20T16:23:47.696Z,16.23
2023-05-20T16:26:17.277Z,16.92
2023-05-20T16:28:46.660Z,17.40
2023-05-20T16:31:16.102Z,17.13
2023-05-20T16:33:45.843Z,16.65
2023-05-20T16:36:15.186Z,17.17
2023-05-20T16:38:44.570Z,18.17
2023-05-20T16:41:15.965Z,17.88
2023-05-20T16:43:45.750Z,18.35
2023-05-20T16:46:15.532Z,17.73
2023-05-20T16:48:45.173Z,17.50
2023-05-20T16:51:14.494Z,18.00
2023-05-20T16:53:43.897Z,17.70
2023-05-20T16:56:13.168Z,17.92
2023-05-20T16:58:42.704Z,18.27
2023-05-20T17:01:12.410Z,18.17
2023-05-20T17:03:41.957Z,17.67
2023-05-20T17:06:11.416Z,18.15
2023-05-20T17:08:40.898Z,18.33
2023-05-20T17:11:10.272Z,19.30
2023-05-20T17:13:42.527Z,19.70
2023-05-20T17:16:13.025Z,18.92
2023-05-20T17:18:42.774Z,18.83
2023-05-20T17:21:13.159Z,20.75
2023-05-20T17:23:43.842Z,18.15
2023-05-20T17:26:13.204Z,20.88
2023-05-20T17:28:42.700Z,20.52
2023-05-20T17:31:12.514Z,20.02
2023-05-20T17:33:41.889Z,20.88
2023-05-20T17:36:11.602Z,19.50
2023-05-20T17:38:40.933Z,20.85
2023-05-20T17:41:10.325Z,19.10
2023-05-20T17:43:39.655Z,20.40
2023-05-20T17:46:09.053Z,21.42
2023-05-20T17:48:38.523Z,20.05
2023-05-20T17:51:08.109Z,20.48
2023-05-20T17:53:37.419Z,20.38
2023-05-20T17:56:07.370Z,20.95
2023-05-20T17:58:42.027Z,20.20
2023-05-20T18:01:11.630Z,21.50
2023-05-20T18:03:41.740Z,20.70
2023-05-20T18:06:11.305Z,20.92
2023-05-20T18:08:40.769Z,20.45
2023-05-20T18:11:15.813Z,21.38
2023-05-20T18:13:45.659Z,21.15
2023-05-20T18:16:15.305Z,21.30
2023-05-20T18:18:45.197Z,20.63
2023-05-20T18:21:14.785Z,20.70
2023-05-20T18:23:44.108Z,20.95
2023-05-20T18:26:13.684Z,22.38
2023-05-20T18:28:43.352Z,21.48
2023-05-20T18:31:13.029Z,21.13
2023-05-20T18:33:42.649Z,21.20
2023-05-20T18:36:12.196Z,21.20
2023-05-20T18:38:42.091Z,22.88
2023-05-20T18:41:11.700Z,22.15
2023-05-20T18:43:41.080Z,21.33
2023-05-20T18:46:10.476Z,22.27
2023-05-20T18:48:39.850Z,23.65
2023-05-20T18:51:09.311Z,24.52
2023-05-20T18:53:38.706Z,24.60
2023-05-20T18:56:08.955Z,23.58
2023-05-20T18:58:38.363Z,24.05
2023-05-20T19:01:08.237Z,23.58
2023-05-20T19:03:38.113Z,23.27
2023-05-20T19:06:07.748Z,22.42
2023-05-20T19:08:37.366Z,22.40
2023-05-20T19:11:07.114Z,21.52
2023-05-20T19:13:36.635Z,22.38
2023-05-20T19:16:06.740Z,23.35
2023-05-20T19:18:37.269Z,22.67
2023-05-20T19:21:06.972Z,22.52
2023-05-20T19:23:36.364Z,22.45
2023-05-20T19:26:05.771Z,22.35
2023-05-20T19:28:35.258Z,23.30
2023-05-20T19:31:04.698Z,21.98
2023-05-20T19:33:34.124Z,22.92
2023-05-20T19:36:03.480Z,24.02
2023-05-20T19:38:32.812Z,23.13
2023-05-20T19:41:02.152Z,21.77
2023-05-20T19:43:31.738Z,22.33
2023-05-20T19:46:10.575Z,22.75
2023-05-20T19:48:39.999Z,22.05
2023-05-20T19:51:11.486Z,22.55
2023-05-20T19:53:40.943Z,22.80
2023-05-20T19:56:10.388Z,21.63
2023-05-20T19:58:39.797Z,23.13
2023-05-20T20:01:09.238Z,22.20
2023-05-20T20:03:38.669Z,21.98
2023-05-20T20:06:08.100Z,22.67
2023-05-20T20:08:40.478Z,22.08
2023-05-20T20:11:10.450Z,22.83
2023-05-20T20:13:39.804Z,22.48
2023-05-20T20:16:09.579Z,21.85
2023-05-20T20:18:39.153Z,22.75
2023-05-20T20:21:10.244Z,23.00
2023-05-20T20:23:40.244Z,23.30
2023-05-20T20:26:10.970Z,24.38
2023-05-20T20:28:40.619Z,23.50
2023-05-20T20:31:09.960Z,23.75
2023-05-20T20:33:39.293Z,22.92
2023-05-20T20:36:10.163Z,23.85
2023-05-20T20:38:39.718Z,23.20
2023-05-20T20:41:10.652Z,22.10
2023-05-20T20:43:39.996Z,22.30
2023-05-20T20:46:10.365Z,22.67
2023-05-20T20:48:39.789Z,22.25
2023-05-20T20:51:09.084Z,22.85
2023-05-20T20:53:38.461Z,22.25
2023-05-20T20:56:07.915Z,21.70
2023-05-20T20:58:38.678Z,21.65
2023-05-20T21:01:08.844Z,22.73
2023-05-20T21:03:41.331Z,22.63
2023-05-20T21:06:10.796Z,21.63
2023-05-20T21:08:40.534Z,22.42
2023-05-20T21:11:10.024Z,22.58
2023-05-20T21:13:40.653Z,22.17
2023-05-20T21:16:10.842Z,23.75
2023-05-20T21:18:40.659Z,22.40
2023-05-20T21:21:13.263Z,22.83
2023-05-20T21:23:43.212Z,22.23
2023-05-20T21:26:12.470Z,23.55
2023-05-20T21:28:41.876Z,23.23
2023-05-20T21:31:11.316Z,22.90
2023-05-20T21:33:41.153Z,23.33
2023-05-20T21:36:10.828Z,22.15
2023-05-20T21:38:40.313Z,22.75
2023-05-20T21:41:10.038Z,23.08
2023-05-20T21:43:39.540Z,22.10
2023-05-20T21:46:08.984Z,21.45
2023-05-20T21:48:38.332Z,22.95
2023-05-20T21:51:07.696Z,21.15
2023-05-20T21:53:36.980Z,20.95
2023-05-20T21:56:06.597Z,22.00
2023-05-20T21:58:41.818Z,21.60
2023-05-20T22:01:11.741Z,21.65
2023-05-20T22:03:41.231Z,23.42
2023-05-20T22:06:12.235Z,21.52
2023-05-20T22:08:42.005Z,21.63
2023-05-20T22:11:11.371Z,20.88
2023-05-20T22:13:42.726Z,21.48
2023-05-20T22:16:12.247Z,22.38
2023-05-20T22:18:42.421Z,21.23
2023-05-20T22:21:12.197Z,22.10
2023-05-20T22:23:42.810Z,22.77
2023-05-20T22:26:12.246Z,21.48
2023-05-20T22:28:41.624Z,22.13
2023-05-20T22:31:11.112Z,22.90
2023-05-20T22:33:42.394Z,21.83
2023-05-20T22:36:11.769Z,21.27
2023-05-20T22:38:41.069Z,20.73
2023-05-20T22:41:10.515Z,21.92
2023-05-20T22:43:39.939Z,21.33
2023-05-20T22:46:09.394Z,22.10
2023-05-20T22:48:38.815Z,22.05
2023-05-20T22:51:09.938Z,21.92
2023-05-20T22:53:39.405Z,22.02
2023-05-20T22:56:09.836Z,21.05
2023-05-20T22:58:40.765Z,22.90
2023-05-20T23:01:10.183Z,21.40
2023-05-20T23:03:41.185Z,23.70
2023-05-20T23:06:10.540Z,22.60
2023-05-20T23:08:39.914Z,23.65
2023-05-20T23:11:09.256Z,22.85
2023-05-20T23:13:38.658Z,22.50
2023-05-20T23:16:08.858Z,22.60
2023-05-20T23:18:38.918Z,22.58
2023-05-20T23:21:08.515Z,23.08
2023-05-20T23:23:37.848Z,22.48
2023-05-20T23:26:07.312Z,23.40
2023-05-20T23:28:36.681Z,23.63
2023-05-20T23:31:06.013Z,22.70
2023-05-20T23:33:35.445Z,22.98
2023-05-20T23:36:05.051Z,23.20
2023-05-20T23:38:34.468Z,22.08
2023-05-20T23:41:03.819Z,22.58
2023-05-20T23:43:33.157Z,21.83
2023-05-20T23:46:02.622Z,22.60
2023-05-20T23:48:31.921Z,22.30
2023-05-20T23:51:01.549Z,22.15
2023-05-20T23:53:31.167Z,23.65
2023-05-20T23:56:00.669Z,23.15
2023-05-20T23:58:29.974Z,24.20
